createdAt,value
2022-08-08T00:02:35.747Z,97.6
2022-08-08T00:06:39.885Z,97.5
2022-08-08T00:12:12.353Z,97.4
2022-08-08T00:16:47.865Z,97.5
2022-08-08T00:21:53.014Z,97.5
2022-08-08T00:26:59.110Z,97.4
2022-08-08T00:32:38.865Z,97.5
2022-08-08T00:38:04.244Z,97.8
2022-08-08T00:42:43.297Z,97.3
2022-08-08T00:48:29.131Z,97.9
2022-08-08T00:52:52.063Z,97.2
2022-08-08T00:57:39.190Z,96.7
2022-08-08T01:04:09.032Z,96.6
2022-08-08T01:08:02.498Z,96.6
2022-08-08T01:12:49.183Z,96.2
2022-08-08T01:18:04.981Z,96.2
2022-08-08T01:22:59.315Z,96.1
2022-08-08T01:28:04.195Z,96.1
2022-08-08T01:34:01.582Z,96.1
2022-08-08T01:38:17.035Z,95.8
2022-08-08T01:43:20.527Z,95.9
2022-08-08T01:48:36.986Z,96
2022-08-08T01:56:37.988Z,96.1
2022-08-08T01:58:51.999Z,95.9
2022-08-08T02:04:02.584Z,95.8
2022-08-08T02:08:50.134Z,95.7
2022-08-08T02:13:57.870Z,95.8
2022-08-08T02:20:08.124Z,95.8
2022-08-08T02:24:07.224Z,95.9
2022-08-08T02:29:21.830Z,95.8
2022-08-08T02:34:35.650Z,95.8
2022-08-08T02:40:02.622Z,96
2022-08-08T02:45:01.422Z,96.1
2022-08-08T02:49:53.864Z,96.4
2022-08-08T02:54:35.311Z,96.5
2022-08-08T03:00:34.547Z,96.6
2022-08-08T03:05:12.621Z,96.6
2022-08-08T03:09:36.657Z,96.6
2022-08-08T03:16:08.249Z,97
2022-08-08T03:20:33.789Z,97.1
2022-08-08T03:25:39.102Z,97.2
2022-08-08T03:31:07.776Z,97.4
2022-08-08T03:35:54.431Z,97.7
2022-08-08T03:40:55.462Z,97.6
2022-08-08T03:46:11.863Z,98.1
2022-08-08T03:51:06.365Z,97.2
2022-08-08T03:56:33.505Z,97.1
2022-08-08T04:02:47.123Z,96.7
2022-08-08T04:06:22.338Z,96.6
2022-08-08T04:11:48.282Z,96.6
2022-08-08T04:16:50.136Z,96.3
2022-08-08T04:21:49.357Z,96.6
2022-08-08T04:27:01.515Z,96.3
2022-08-08T04:32:03.063Z,96.4
2022-08-08T04:36:51.060Z,96.4
2022-08-08T04:41:59.528Z,96.2
2022-08-08T04:47:03.982Z,96.3
2022-08-08T04:52:07.437Z,96
2022-08-08T04:57:11.428Z,96.1
2022-08-08T05:02:32.573Z,96
2022-08-08T05:07:18.141Z,96
2022-08-08T05:13:02.869Z,96.1
2022-08-08T05:17:25.655Z,96
2022-08-08T05:22:32.697Z,96.4
2022-08-08T05:27:45.951Z,96.4
2022-08-08T05:32:41.095Z,96.5
2022-08-08T05:38:00.070Z,96.5
2022-08-08T05:42:53.852Z,96.2
2022-08-08T05:48:11.169Z,96
2022-08-08T05:52:57.448Z,95.8
2022-08-08T05:58:32.644Z,95.6
2022-08-08T06:03:34.524Z,95.1
2022-08-08T06:08:38.642Z,94.6
2022-08-08T06:13:46.914Z,93.5
2022-08-08T06:18:32.013Z,92.3
2022-08-08T06:24:13.664Z,91.9
2022-08-08T06:34:30.453Z,90.5
2022-08-08T06:38:46.326Z,90.6
2022-08-08T06:44:03.551Z,90
2022-08-08T06:48:58.103Z,90
2022-08-08T06:54:03.928Z,88.4
2022-08-08T06:59:16.526Z,88.3
2022-08-08T07:04:53.383Z,89.2
2022-08-08T07:09:45.845Z,87.9
2022-08-08T07:14:25.969Z,85.6
2022-08-08T07:19:32.840Z,85.6
2022-08-08T07:24:35.110Z,85.6
2022-08-08T07:30:25.280Z,86.3
2022-08-08T07:35:06.248Z,88.6
2022-08-08T07:40:03.676Z,87.6
2022-08-08T07:44:47.937Z,87
2022-08-08T07:49:54.682Z,85.6
2022-08-08T07:55:02.218Z,81.9
2022-08-08T08:00:17.291Z,81.8
2022-08-08T08:05:18.460Z,81.1
2022-08-08T08:10:15.465Z,80.3
2022-08-08T08:15:23.359Z,80.1
2022-08-08T08:20:33.248Z,81.6
2022-08-08T08:26:00.939Z,81.7
2022-08-08T08:30:47.721Z,78.9
2022-08-08T08:36:30.363Z,81.6
2022-08-08T08:40:54.762Z,81.6
2022-08-08T08:46:06.605Z,81.6
2022-08-08T08:51:00.250Z,81
2022-08-08T08:56:06.272Z,80.5
2022-08-08T09:01:16.933Z,77.5
2022-08-08T09:06:35.913Z,76.2
2022-08-08T09:12:01.921Z,74.5
2022-08-08T09:16:41.077Z,73.9
2022-08-08T09:22:08.662Z,72.8
2022-08-08T09:26:52.461Z,71.3
2022-08-08T09:31:59.970Z,72.2
2022-08-08T09:38:03.347Z,70.3
2022-08-08T09:42:27.066Z,69.2
2022-08-08T09:48:18.081Z,67.4
2022-08-08T09:53:15.445Z,67.5
2022-08-08T09:57:23.460Z,67.6
2022-08-08T10:02:17.691Z,67.4
2022-08-08T10:07:18.122Z,66.8
2022-08-08T10:13:00.455Z,66.5
2022-08-08T10:18:25.637Z,67.6
2022-08-08T10:22:28.999Z,67
2022-08-08T10:27:39.203Z,66.7
2022-08-08T10:32:51.909Z,67.2
2022-08-08T10:37:45.822Z,69.2
2022-08-08T10:42:50.121Z,71.5
2022-08-08T10:48:00.341Z,70.4
2022-08-08T10:52:54.253Z,69.3
2022-08-08T10:57:58.545Z,69.9
2022-08-08T11:03:05.969Z,72
2022-08-08T11:08:54.162Z,72.3
2022-08-08T11:13:35.691Z,74
2022-08-08T11:18:20.979Z,71.1
2022-08-08T11:23:32.886Z,70.2
2022-08-08T11:28:32.847Z,69.4
2022-08-08T11:34:52.349Z,69
2022-08-08T11:38:58.116Z,71
2022-08-08T11:43:49.732Z,70.3
2022-08-08T11:48:48.474Z,70.1
2022-08-08T11:54:05.342Z,72.1
2022-08-08T11:59:03.498Z,75.6
2022-08-08T12:04:07.635Z,76.2
2022-08-08T12:09:19.698Z,76.8
2022-08-08T12:19:31.430Z,78.3
2022-08-08T12:24:31.905Z,79.7
2022-08-08T12:29:46.547Z,80.8
2022-08-08T12:34:39.530Z,81.1
2022-08-08T12:40:06.544Z,81.7
2022-08-08T12:44:52.453Z,81.6
2022-08-08T12:49:48.742Z,83
2022-08-08T12:54:56.353Z,82.8
2022-08-08T13:00:21.409Z,83.1
2022-08-08T13:06:11.721Z,83.3
2022-08-08T13:10:12.846Z,82
2022-08-08T13:15:10.045Z,82.9
2022-08-08T13:20:18.482Z,83.2
2022-08-08T13:25:25.160Z,83.2
2022-08-08T13:30:30.483Z,85.6
2022-08-08T13:35:51.472Z,86.1
2022-08-08T13:40:35.855Z,85.5
2022-08-08T13:51:41.824Z,88.6
2022-08-08T13:55:52.002Z,88.6
2022-08-08T14:00:57.150Z,89.3
2022-08-08T14:06:04.385Z,89.2
2022-08-08T14:11:13.171Z,88.1
2022-08-08T14:16:18.184Z,90.2
2022-08-08T14:21:24.151Z,90.5
2022-08-08T14:26:18.525Z,89.1
2022-08-08T14:32:26.479Z,89.3
2022-08-08T14:36:22.350Z,88.8
2022-08-08T14:41:57.835Z,89
2022-08-08T14:46:36.037Z,88.6
2022-08-08T14:51:56.126Z,88.8
2022-08-08T14:56:49.497Z,88.3
2022-08-08T15:01:56.256Z,88.3
2022-08-08T15:07:04.269Z,88.3
2022-08-08T15:12:07.185Z,89.3
2022-08-08T15:17:16.181Z,90
2022-08-08T15:22:30.908Z,90.6
2022-08-08T15:28:36.850Z,90.7
2022-08-08T15:32:34.828Z,91.7
2022-08-08T15:37:38.121Z,91.8
2022-08-08T15:42:42.784Z,93.9
2022-08-08T15:48:21.398Z,94.5
2022-08-08T15:52:57.967Z,95.2
2022-08-08T15:58:02.791Z,95.6
2022-08-08T16:03:07.030Z,95.5
2022-08-08T16:08:20.889Z,95.5
2022-08-08T16:13:54.349Z,95.4
2022-08-08T16:18:20.818Z,95.7
2022-08-08T16:23:33.981Z,95.7
2022-08-08T16:28:42.289Z,95.6
2022-08-08T16:33:58.117Z,95.6
2022-08-08T16:38:56.501Z,95.7
2022-08-08T16:43:56.138Z,96
2022-08-08T16:49:01.451Z,96.3
2022-08-08T16:56:00.366Z,96.5
2022-08-08T16:59:13.923Z,97
2022-08-08T17:04:23.395Z,97.2
2022-08-08T17:09:46.443Z,97.3
2022-08-08T17:14:38.969Z,97.5
2022-08-08T17:19:48.695Z,97.5
2022-08-08T17:24:41.945Z,97.4
2022-08-08T17:29:59.894Z,97.7
2022-08-08T17:36:31.275Z,97.8
2022-08-08T17:40:17.521Z,97.8
2022-08-08T17:45:01.556Z,97.8
2022-08-08T17:50:06.445Z,98.2
2022-08-08T17:56:10.758Z,98.2
2022-08-08T18:00:33.126Z,98.4
2022-08-08T18:05:50.625Z,98.5
2022-08-08T18:10:35.677Z,98.5
2022-08-08T18:15:33.489Z,98.5
2022-08-08T18:21:00.688Z,98.7
2022-08-08T18:25:44.338Z,98.6
2022-08-08T18:30:49.592Z,98.4
2022-08-08T18:36:03.729Z,98.3
2022-08-08T18:40:57.295Z,98.4
2022-08-08T18:47:00.198Z,98.4
2022-08-08T18:51:02.729Z,98.5
2022-08-08T18:56:07.176Z,98.6
2022-08-08T19:02:31.952Z,98.8
2022-08-08T19:06:17.038Z,99.1
2022-08-08T19:11:29.481Z,99.6
2022-08-08T19:16:34.849Z,99.9
2022-08-08T19:21:54.122Z,99.9
2022-08-08T19:26:53.080Z,99.9
2022-08-08T19:31:54.857Z,99.9
2022-08-08T19:36:51.010Z,99.9
2022-08-08T19:41:53.340Z,99.9
2022-08-08T19:47:03.161Z,99.9
2022-08-08T19:51:58.183Z,99.9
2022-08-08T19:57:08.769Z,99.9
2022-08-08T20:02:11.732Z,99.9
2022-08-08T20:08:33.573Z,99.9
2022-08-08T20:12:10.977Z,99.9
2022-08-08T20:17:08.118Z,99.9
2022-08-08T20:22:33.991Z,99.9
2022-08-08T20:27:56.387Z,99.9
2022-08-08T20:32:26.040Z,99.9
2022-08-08T20:37:21.280Z,99.9
2022-08-08T20:42:31.798Z,99.9
2022-08-08T20:47:39.329Z,99.9
2022-08-08T20:52:31.947Z,99.9
2022-08-08T20:57:51.915Z,99.9
2022-08-08T21:02:36.967Z,99.9
2022-08-08T21:08:52.166Z,99.9
2022-08-08T21:12:56.727Z,99.9
2022-08-08T21:17:59.737Z,99.9
2022-08-08T21:22:53.413Z,99.9
2022-08-08T21:28:37.445Z,99.9
2022-08-08T21:33:12.655Z,99.9
2022-08-08T21:38:19.477Z,99.9
2022-08-08T21:43:08.092Z,99.9
2022-08-08T21:48:50.997Z,99.9
2022-08-08T21:56:30.425Z,99.9
2022-08-08T21:58:31.999Z,99.9
2022-08-08T22:03:24.501Z,99.9
2022-08-08T22:08:41.842Z,99.9
2022-08-08T22:13:54.026Z,99.9
2022-08-08T22:18:38.391Z,99.9
2022-08-08T22:23:54.758Z,99.9
2022-08-08T22:30:05.343Z,99.9
2022-08-08T22:34:18.007Z,99.9
2022-08-08T22:39:18.992Z,99.9
2022-08-08T22:44:14.121Z,99.9
2022-08-08T22:49:27.275Z,99.9
2022-08-08T22:55:07.254Z,99.9
2022-08-08T23:04:36.791Z,99.9
2022-08-08T23:10:00.420Z,99.9
2022-08-08T23:14:28.003Z,99.9
2022-08-08T23:19:36.467Z,99.9
2022-08-08T23:24:50.361Z,99.9
2022-08-08T23:29:57.243Z,99.9
2022-08-08T23:35:01.663Z,99.9
2022-08-08T23:40:01.425Z,99.9
2022-08-08T23:44:56.881Z,99.9
2022-08-08T23:50:30.390Z,99.9
2022-08-08T23:55:25.319Z,99.9
